Ares Commercial Real Estate (ACRE) Latest Bloomsberg Price


Mffais Ranking #604 Overall / #8 Industry
Industry: Mortgage Finance

Number of Companies: 79 (Ranking #1918 Overall/#29 Industry)
Inflow: $ 11,026 (K) (Ranking #1961 Overall/#26 Industry)
Outflow: $ -5,945 (K)
Mffais Flow: $ 5,081 (K) (Ranking #604 Overall/#8 Industry)


Receive a FREE weekly executive review of stocks moving into the top 10, taking the top industy spot or moving up within their industry. Sent directly to your Inbox every Saturday. Sign up today and get last week's review immediately sent to you.

We value and respect your privacy. Please read our Terms and Conditions which states our firm commitment to your privacy. Your email address will not be shared with a third party, nor will it be sold or used for purposes other than subscription for the weekly review.

Owner CPOR Shares Action Qty Chg Invested (K) Total Current Value (K)
Nuveen Asset Management Llc 2016-09-30 135,446 New Holding 135,446 $ 1,718 $ 1,718
Kennedy Capital Management Inc 2016-09-30 95,805 New Holding 95,805 $ 1,215 $ 1,215
Secor Capital Advisors Lp 2016-09-30 93,556 New Holding 93,556 $ 1,187 $ 1,187
Telemus Capital Llc 2016-09-30 221,325 Added More 91,589 $ 1,162 $ 2,808
Martingale Asset Management L P 2016-09-30 146,834 Added More 76,021 $ 964 $ 1,863
Advisors Capital Management Llc 2016-09-30 64,227 New Holding 64,227 $ 815 $ 815
Bessemer Group Inc 2016-09-30 42,300 New Holding 42,300 $ 536 $ 536
Hillsdale Investment Management Inc 2016-09-30 40,300 New Holding 40,300 $ 511 $ 511
Gratia Capital Llc 2016-09-30 50,154 Added More 30,503 $ 387 $ 636
Ares Management Llc 2016-09-30 18,362 New Holding 18,362 $ 233 $ 233
Squarepoint Ops Llc 2016-09-30 16,940 New Holding 16,940 $ 214 $ 214
Gsa Capital Partners Llp 2016-09-30 214,678 Added More 16,612 $ 210 $ 2,724
Tfs Capital Llc 2016-09-30 16,434 New Holding 16,434 $ 208 $ 208
Dynamic Technology Lab Private Ltd 2016-09-30 15,977 New Holding 15,977 $ 202 $ 202
Clarivest Asset Management Llc 2016-09-30 15,134 Added More 15,086 $ 191 $ 192
Cetera Advisors Llc 2016-09-30 11,422 New Holding 11,422 $ 144 $ 144
Hancock Holding Co 2016-09-30 10,449 New Holding 10,449 $ 132 $ 132
James Investment Research Inc 2016-09-30 64,600 Added More 9,670 $ 122 $ 819
Qs Investors Llc 2016-09-30 9,844 Added More 9,400 $ 119 $ 124
Cornerstone Capital Management Holdings Llc 2016-09-30 34,900 Added More 9,400 $ 119 $ 442
Ing Groep Nv 2016-09-30 455,628 Added More 9,230 $ 117 $ 5,781
Acrospire Investment Management Llc 2016-09-30 17,799 Added More 7,405 $ 93 $ 225
Indexiq Advisors Llc 2016-09-30 25,807 Added More 5,054 $ 64 $ 327
Yorktown Management Research Co Inc 2016-09-30 60,000 Added More 5,000 $ 63 $ 761
Sei Investments Co 2016-09-30 6,797 Added More 4,184 $ 53 $ 86
Pnc Financial Services Group Inc 2016-09-30 55,441 Added More 3,493 $ 44 $ 703
Blackrock Inc 2016-09-30 23,714 Added More 3,109 $ 39 $ 300
Mackenzie Financial Corp 2016-09-30 13,887 Added More 3,068 $ 38 $ 176
Northern Trust Corp 2016-09-30 290,377 Added More 2,470 $ 31 $ 3,684
Gam Holding Ag 2016-09-30 2,065 New Holding 2,065 $ 26 $ 26
Nuveen Fund Advisors Llc 2016-09-30 89,022 Added More 1,839 $ 23 $ 1,129
Parametric Portfolio Associates Llc 2016-09-30 96,488 Added More 603 $ 7 $ 1,224
Tudor Investment Corp Et Al 2016-09-30 11,485 Added More 500 $ 6 $ 145
National Planning Corp 2016-09-30 19,925 Added More 500 $ 6 $ 252
Rhumbline Advisers 2016-09-30 36,586 Added More 360 $ 4 $ 464
California State Teachers Retirement System 2016-09-30 56,767 Added More 300 $ 3 $ 720
Denali Advisors Llc 2016-09-30 348 Added More 217 $ 2 $ 4
American International Group Inc 2016-09-30 15,493 Added More 23 $ 0 $ 196
Jbf Capital Inc 2016-09-30 69,472 No Change 0 $ 0 $ 881
Bokf Na 2016-09-30 11,167 No Change 0 $ 0 $ 141
Fifth Third Bancorp 2016-09-30 14 No Change 0 $ 0 $ 0
Us Bancorp De 2016-09-30 127 No Change 0 $ 0 $ 1
Deere Co 2016-09-30 22,480 No Change 0 $ 0 $ 285
Legal General Group Plc 2016-09-30 4,767 No Change 0 $ 0 $ 60
Howe Rusling Inc 2016-09-30 445 No Change 0 $ 0 $ 5
Alleghany Corp De 2016-09-30 125,115 No Change 0 $ 0 $ 1,587
New York State Common Retirement Fund 2016-09-30 24,700 No Change 0 $ 0 $ 313
Delphi Financial Group Inc 2016-09-30 1,469,769 No Change 0 $ 0 $ 18,651
Panagora Asset Management Inc 2016-09-30 9,593 No Change 0 $ 0 $ 121
Nisa Investment Advisors Llc 2016-09-30 3,800 No Change 0 $ 0 $ 48
Teachers Advisors Inc 2016-09-30 53,713 No Change 0 $ 0 $ 681
First Quadrant L P Ca 2016-09-30 5,300 No Change 0 $ 0 $ 67
Enterprise Financial Services Corp 2016-09-30 171 No Change 0 $ 0 $ 2
Diam Co Ltd 2016-09-30 13,397 No Change 0 $ 0 $ 170
Nationwide Fund Advisors 2016-09-30 17,786 No Change 0 $ 0 $ 225
Parkside Financial Bank Trust 2016-09-30 1,884 No Change 0 $ 0 $ 23
Spot Trading L L C 2016-09-30 15,400 No Change 0 $ 0 $ 195
Integrated Wealth Management 2016-09-30 380 No Change 0 $ 0 $ 4
Ifp Advisors Inc 2016-09-30 999 No Change 0 $ 0 $ 12
Advisor Group Inc 2016-09-30 600 No Change 0 $ 0 $ 7
Sterling Capital Management Llc 2016-09-30 59,868 Sold Some -100 $ -1 $ 759
Blackrock Investment Management Llc 2016-09-30 119,304 Sold Some -125 $ -1 $ 1,513
Strs Ohio 2016-09-30 9,200 Sold Some -300 $ -3 $ 116
Camelot Portfolios Llc 2016-09-30 75,208 Sold Some -460 $ -5 $ 954
Cutler Group Lp 2016-09-30 1,213 Sold Some -1,200 $ -15 $ 15
Advisors Asset Management Inc 2016-09-30 22,639 Sold Some -1,816 $ -23 $ 287
Tower Research Capital Llc Trc 2016-09-30 0 Sold All -3,666 $ -46 $ 0
Menta Capital Llc 2016-09-30 16,571 Sold Some -4,000 $ -50 $ 210
Arcadia Investment Management Corp Mi 2016-09-30 0 Sold All -4,105 $ -52 $ 0
Cardinal Capital Management Llc Ct 2016-09-30 104,740 Sold Some -7,500 $ -95 $ 1,329
Tradewinds Global Investors Llc 2016-09-30 0 Sold All -13,845 $ -175 $ 0
Clear Harbor Asset Management Llc 2016-09-30 187,892 Sold Some -16,470 $ -209 $ 2,384
Signia Capital Management Llc 2016-09-30 71,365 Sold Some -17,063 $ -216 $ 905
Hightower Advisors Llc 2016-09-30 16,970 Sold Some -18,245 $ -231 $ 215
Emerald Acquisition Ltd 2016-09-30 198,766 Sold Some -24,376 $ -309 $ 2,522
Grantham Mayo Van Otterloo Co Llc 2016-09-30 16,929 Sold Some -35,492 $ -450 $ 214
Buckhead Capital Management Llc 2016-09-30 233,710 Sold Some -53,685 $ -681 $ 2,965
Peak6 Investments L P 2016-09-30 0 Sold All -71,600 $ -908 $ 0
Rs Investment Management Co Llc 2016-06-30 2,059,199 Sold Some -200,799 $ -2,467 $ 25,307